This is the latest recevied weather packets stored in our database for station/object SQ4IXR-4. If no packets are shown the sender has not sent any weather packets the latest 10 day(s).
| Time | Temp. | Humidity | Pressure | Rain* | Wind** | Luminosity | Snow |
|---|---|---|---|---|---|---|---|
| 1777883061 | 56.11° C | 3% | 1013.8 hPa | - | - | - | - |
| 1777882246 | 55° C | 4% | 1013.9 hPa | - | - | - | - |
| 1777881418 | 54.44° C | 4% | 1014 hPa | - | - | - | - |
| 1777880604 | 53.33° C | 4% | 1014 hPa | - | - | - | - |
| 1777879786 | 56.11° C | 3% | 1013.9 hPa | - | - | - | - |
| 1777878968 | 57.78° C | 3% | 1014.1 hPa | - | - | - | - |
| 1777878141 | 52.78° C | 5% | 1014.4 hPa | - | - | - | - |
| 1777877315 | 55.56° C | 4% | 1014.4 hPa | - | - | - | - |
| 1777876487 | 52.78° C | 5% | 1014.5 hPa | - | - | - | - |
| 1777875657 | 51.11° C | 6% | 1014.7 hPa | - | - | - | - |
| 1777874825 | 49.44° C | 7% | 1014.7 hPa | - | - | - | - |
| 1777873988 | 44.44° C | 9% | 1015 hPa | - | - | - | - |
| 1777873131 | 33.33° C | 18% | 1015.5 hPa | - | - | - | - |
| 1777872292 | 20.56° C | 34% | 1016.3 hPa | - | - | - | - |
| 1777871466 | 19.44° C | 36% | 1016.5 hPa | - | - | - | - |
| 1777870638 | 18.33° C | 38% | 1016.6 hPa | - | - | - | - |
| 1777869812 | 16.67° C | 41% | 1016.7 hPa | - | - | - | - |
| 1777868987 | 16.11° C | 43% | 1016.8 hPa | - | - | - | - |
| 1777868160 | 15.56° C | 44% | 1016.7 hPa | - | - | - | - |
| 1777867334 | 14.44° C | 46% | 1016.7 hPa | - | - | - | - |
| 1777866510 | 13.89° C | 47% | 1016.6 hPa | - | - | - | - |
| 1777865685 | 13.33° C | 48% | 1016.7 hPa | - | - | - | - |
| 1777864861 | 13.33° C | 48% | 1016.8 hPa | - | - | - | - |
| 1777864038 | 12.78° C | 48% | 1016.8 hPa | - | - | - | - |
| 1777863214 | 12.78° C | 48% | 1016.9 hPa | - | - | - | - |
* Rain since midnight (hover to see other rain measurements)
** Current wind speed in m/s (hover to see current wind gust speed)